Time;durP1;ratioP1;P1;durP2;ratioP2;P2;SDS_P1;SDS_P2;PMS_P1;PMS_P2;Temp;Humidity;BMP_temperature;BMP_pressure;BME280_temperature;BME280_humidity;BME280_pressure;Samples;Min_cycle;Max_cycle;Signal;HPM_P1;HPM_P2
2022/11/28 00:02:44;;;;;;;12.00;7.22;;;;;;;8.47;63.67;100320.41;10397876;28;20057;-68
2022/11/28 00:07:45;;;;;;;13.23;7.18;;;;;;;8.46;63.54;100292.78;10390876;28;20046;-68
2022/11/28 00:12:47;;;;;;;13.68;7.93;;;;;;;8.46;63.54;100291.97;10393620;28;20057;-67
2022/11/28 00:17:48;;;;;;;12.95;8.05;;;;;;;8.44;63.76;100289.44;10393403;28;20101;-68
2022/11/28 00:22:51;;;;;;;11.65;7.15;;;;;;;8.41;63.69;100292.47;10394265;28;20041;-68
2022/11/28 00:27:52;;;;;;;12.55;7.38;;;;;;;8.39;63.58;100289.03;10389508;28;20069;-68
2022/11/28 00:32:53;;;;;;;12.93;7.53;;;;;;;8.36;63.85;100269.81;10394477;28;20084;-68
2022/11/28 00:37:55;;;;;;;11.40;7.60;;;;;;;8.32;63.90;100270.13;10393743;28;20050;-68
2022/11/28 00:42:56;;;;;;;10.20;7.22;;;;;;;8.30;63.92;100272.13;10393792;28;20041;-68
2022/11/28 00:47:57;;;;;;;11.65;7.13;;;;;;;8.28;63.81;100270.63;10389591;28;20080;-68
2022/11/28 00:52:59;;;;;;;13.55;8.07;;;;;;;8.23;63.51;100263.06;10391398;28;20397;-68
2022/11/28 00:58:00;;;;;;;13.68;8.23;;;;;;;7.96;64.41;100266.84;10390890;28;20078;-69
2022/11/28 01:03:02;;;;;;;14.20;7.45;;;;;;;7.76;64.49;100268.94;10390063;28;20053;-69
2022/11/28 01:08:03;;;;;;;12.85;7.63;;;;;;;7.72;64.60;100270.22;10388492;28;20137;-68
2022/11/28 01:13:05;;;;;;;18.77;8.65;;;;;;;7.61;65.02;100274.00;10392178;28;20045;-68
2022/11/28 01:18:07;;;;;;;15.75;8.60;;;;;;;7.65;65.37;100269.19;10389832;28;20096;-66
2022/11/28 01:23:08;;;;;;;13.48;8.50;;;;;;;7.72;64.71;100262.19;10402917;28;20969;-66
2022/11/28 01:28:09;;;;;;;12.43;8.30;;;;;;;7.77;64.28;100264.41;10402675;28;20056;-67
2022/11/28 01:33:11;;;;;;;13.02;9.07;;;;;;;7.74;64.98;100257.50;10403447;28;20048;-67
2022/11/28 01:38:12;;;;;;;17.85;8.52;;;;;;;7.70;65.19;100251.66;10403508;28;20078;-68
2022/11/28 01:43:14;;;;;;;14.35;7.72;;;;;;;7.73;64.53;100235.28;10398739;28;20487;-66
2022/11/28 01:48:21;;;;;;;14.25;8.55;;;;;;;7.72;64.37;100208.69;10396345;28;20531;-66
2022/11/28 01:53:25;;;;;;;;;;;;;;;7.54;64.99;100216.78;10401931;28;20128;-64
2022/11/28 01:58:28;;;;;;;14.70;7.72;;;;;;;7.61;64.96;100199.13;10402722;28;19944;-67
2022/11/28 02:03:37;;;;;;;13.57;8.15;;;;;;;7.65;65.29;100179.06;10398134;28;20114;-65
2022/11/28 02:08:38;;;;;;;15.95;8.68;;;;;;;7.62;65.34;100192.78;10388559;28;20080;-64
2022/11/28 02:13:52;;;;;;;13.23;8.55;;;;;;;7.44;66.20;100192.84;10398095;28;20440;-65
2022/11/28 02:18:58;;;;;;;13.95;8.50;;;;;;;7.52;66.23;100174.19;10398221;28;20060;-68
2022/11/28 02:24:30;;;;;;;14.75;8.85;;;;;;;7.63;65.85;100181.06;10398459;28;20154;-66
2022/11/28 02:29:59;;;;;;;14.45;9.10;;;;;;;7.66;65.73;100164.72;10395934;28;20084;-66
2022/11/28 02:35:18;;;;;;;15.55;9.52;;;;;;;7.64;65.56;100182.75;10398569;28;20580;-66
2022/11/28 02:40:45;;;;;;;19.88;9.73;;;;;;;7.61;65.32;100182.25;10395588;28;20080;-67
2022/11/28 02:46:12;;;;;;;15.33;9.93;;;;;;;7.53;65.91;100180.34;10390723;28;20049;-65
2022/11/28 02:51:27;;;;;;;11.93;8.02;;;;;;;7.56;65.90;100169.31;10390695;28;20387;-67
2022/11/28 02:56:29;;;;;;;14.05;8.35;;;;;;;7.58;65.74;100161.97;10380345;28;20048;-67
2022/11/28 03:01:37;;;;;;;14.35;7.82;;;;;;;7.61;65.82;100163.50;10384876;28;20137;-66
2022/11/28 03:06:51;;;;;;;11.35;8.00;;;;;;;7.62;66.19;100151.78;10373275;28;20049;-66
2022/11/28 03:12:28;;;;;;;12.57;8.40;;;;;;;7.63;66.05;100158.84;10383230;28;20137;-67
2022/11/28 03:17:53;;;;;;;13.48;8.15;;;;;;;7.48;66.61;100153.25;10391425;28;20648;-67
2022/11/28 03:23:13;;;;;;;14.68;8.93;;;;;;;7.51;66.67;100155.63;10387372;28;20072;-66
2022/11/28 03:28:21;;;;;;;15.13;9.18;;;;;;;7.59;65.89;100142.25;10397910;28;20049;-66
2022/11/28 03:33:26;;;;;;;14.30;8.48;;;;;;;7.64;66.63;100147.97;10392908;28;20072;-66
2022/11/28 03:38:34;;;;;;;14.27;8.80;;;;;;;7.64;66.72;100136.41;10391237;28;20069;-68
2022/11/28 03:43:42;;;;;;;12.43;7.95;;;;;;;7.65;66.34;100136.25;10394195;28;20066;-69
2022/11/28 03:48:48;;;;;;;16.10;9.40;;;;;;;7.68;66.31;100127.06;10384747;28;20049;-69
2022/11/28 03:53:55;;;;;;;16.27;8.30;;;;;;;7.68;65.51;100119.91;10378176;28;20136;-69
2022/11/28 03:59:15;;;;;;;14.55;8.82;;;;;;;7.69;65.59;100118.06;10372067;28;20058;-69
2022/11/28 04:04:37;;;;;;;16.10;9.27;;;;;;;7.69;65.67;100104.69;10371794;28;20364;-67
2022/11/28 04:09:48;;;;;;;18.52;8.82;;;;;;;7.67;65.74;100102.16;10388515;28;20050;-69
2022/11/28 04:14:58;;;;;;;13.93;8.60;;;;;;;7.68;65.81;100098.50;10387827;28;20063;-69
2022/11/28 04:20:08;;;;;;;14.90;9.00;;;;;;;7.73;65.51;100100.69;10373579;28;20141;-67
2022/11/28 04:25:13;;;;;;;15.82;8.85;;;;;;;7.70;65.42;100096.50;10392555;28;20510;-68
2022/11/28 04:30:15;;;;;;;16.00;8.23;;;;;;;7.65;66.16;100088.13;10385902;28;20064;-69
2022/11/28 04:35:25;;;;;;;11.80;7.65;;;;;;;7.60;66.29;100087.75;10392745;28;20049;-67
2022/11/28 04:40:31;;;;;;;14.60;8.73;;;;;;;7.60;65.70;100089.59;10379270;28;20132;-67
2022/11/28 04:45:42;;;;;;;14.18;8.63;;;;;;;7.62;65.56;100080.44;10381477;28;20505;-69
2022/11/28 04:51:08;;;;;;;14.57;8.85;;;;;;;7.54;66.19;100075.03;10395734;28;20053;-67
2022/11/28 04:56:19;;;;;;;16.15;10.05;;;;;;;7.46;66.51;100086.53;10385157;28;20144;-69
2022/11/28 05:01:26;;;;;;;16.83;9.25;;;;;;;7.42;66.83;100087.03;10385388;28;20556;-69
2022/11/28 05:06:33;;;;;;;15.97;9.93;;;;;;;7.49;66.32;100080.06;10398349;28;20064;-66
2022/11/28 05:11:35;;;;;;;16.17;9.60;;;;;;;7.47;65.91;100076.72;10396631;28;20037;-67
2022/11/28 05:16:36;;;;;;;20.15;10.88;;;;;;;7.53;66.92;100065.34;10390330;28;20052;-69
2022/11/28 05:21:38;;;;;;;16.75;10.27;;;;;;;7.63;66.18;100070.56;10400706;28;20103;-70
2022/11/28 05:26:39;;;;;;;17.60;9.95;;;;;;;7.62;65.78;100069.72;10400244;28;20076;-69
2022/11/28 05:31:40;;;;;;;17.27;10.35;;;;;;;7.67;66.41;100064.72;10396308;28;20055;-69
2022/11/28 05:36:42;;;;;;;18.58;10.13;;;;;;;7.74;66.46;100071.09;10392979;28;20620;-68
2022/11/28 05:41:43;;;;;;;16.42;9.80;;;;;;;7.73;65.67;100072.06;10396968;28;20110;-67
2022/11/28 05:46:45;;;;;;;16.77;10.07;;;;;;;7.73;66.21;100066.72;10391132;28;20133;-68
2022/11/28 05:51:47;;;;;;;17.67;9.63;;;;;;;7.75;66.22;100055.88;10392168;28;20176;-68
2022/11/28 05:56:49;;;;;;;20.55;10.45;;;;;;;7.71;66.67;100058.03;10394854;28;20056;-68
2022/11/28 06:01:50;;;;;;;15.25;9.13;;;;;;;7.65;65.96;100061.34;10393083;28;20575;-69
2022/11/28 06:06:51;;;;;;;18.70;10.40;;;;;;;7.63;66.26;100059.84;10368344;28;20523;-68
2022/11/28 06:11:53;;;;;;;18.20;9.93;;;;;;;7.63;66.03;100059.84;10373956;28;20552;-68
2022/11/28 06:16:54;;;;;;;19.35;10.40;;;;;;;7.61;66.58;100060.00;10392328;28;20148;-69
2022/11/28 06:21:56;;;;;;;18.90;11.13;;;;;;;7.67;66.09;100053.19;10390329;28;20054;-68
2022/11/28 06:26:57;;;;;;;21.33;10.82;;;;;;;7.66;66.06;100054.16;10387527;28;20140;-68
2022/11/28 06:31:58;;;;;;;20.58;10.98;;;;;;;7.61;66.75;100051.16;10394734;28;20556;-69
2022/11/28 06:37:00;;;;;;;20.95;10.55;;;;;;;7.66;66.39;100044.31;10388407;28;20049;-68
2022/11/28 06:42:01;;;;;;;18.42;10.55;;;;;;;7.67;66.63;100055.84;10390118;28;20137;-69
2022/11/28 06:47:03;;;;;;;23.60;12.45;;;;;;;7.62;66.31;100056.34;10386134;28;20052;-68
2022/11/28 06:52:04;;;;;;;18.67;11.27;;;;;;;7.55;67.03;100049.97;10391404;28;20204;-69
2022/11/28 06:57:06;;;;;;;20.02;11.50;;;;;;;7.56;66.48;100043.63;10391712;28;20069;-67
2022/11/28 07:02:09;;;;;;;18.85;10.43;;;;;;;7.53;66.12;100052.81;10391911;28;20140;-64
2022/11/28 07:07:11;;;;;;;19.02;11.23;;;;;;;7.54;66.99;100059.84;10385358;28;20131;-63
2022/11/28 07:12:17;;;;;;;17.98;10.68;;;;;;;7.56;67.04;100078.38;10384358;28;20045;-61
2022/11/28 07:17:18;;;;;;;20.63;11.30;;;;;;;7.49;65.97;100074.69;10379650;28;20136;-65
2022/11/28 07:22:21;;;;;;;20.42;10.73;;;;;;;7.56;66.25;100078.38;10378009;28;20579;-65
2022/11/28 07:27:22;;;;;;;26.77;11.23;;;;;;;7.59;66.35;100075.41;10390558;28;20088;-65
2022/11/28 07:32:24;;;;;;;20.52;12.15;;;;;;;7.67;66.10;100079.94;10385568;28;20090;-65
2022/11/28 07:37:25;;;;;;;20.67;11.15;;;;;;;7.78;66.56;100086.78;10367983;28;20215;-64
2022/11/28 07:42:26;;;;;;;21.00;10.57;;;;;;;7.83;66.50;100093.31;10378653;28;20175;-65
2022/11/28 07:47:28;;;;;;;22.17;11.13;;;;;;;7.89;66.00;100086.50;10380964;28;20053;-65
2022/11/28 07:52:29;;;;;;;23.40;11.05;;;;;;;7.95;65.79;100078.63;10381667;28;20503;-65
2022/11/28 07:57:30;;;;;;;19.00;11.10;;;;;;;8.03;65.64;100085.81;10380172;28;20080;-65
2022/11/28 08:02:32;;;;;;;18.92;10.90;;;;;;;8.04;66.09;100092.03;10373225;28;20077;-63
2022/11/28 08:07:33;;;;;;;21.35;9.70;;;;;;;8.07;66.29;100091.69;10382310;28;20076;-64
2022/11/28 08:12:35;;;;;;;23.80;11.57;;;;;;;8.09;66.19;100098.53;10386138;28;20045;-71
2022/11/28 08:17:36;;;;;;;31.25;11.25;;;;;;;8.16;65.72;100085.34;10381458;28;20084;-65
2022/11/28 08:22:37;;;;;;;22.40;11.65;;;;;;;8.23;65.23;100085.50;10380853;28;20140;-65
2022/11/28 08:27:39;;;;;;;18.52;10.95;;;;;;;8.31;65.82;100080.16;10383386;28;20137;-64
2022/11/28 08:32:40;;;;;;;24.17;11.48;;;;;;;8.36;65.87;100079.66;10383368;28;20323;-65
2022/11/28 08:37:42;;;;;;;18.60;10.73;;;;;;;8.45;65.59;100084.00;10386168;28;20109;-60
2022/11/28 08:42:43;;;;;;;24.58;11.80;;;;;;;8.50;65.73;100079.00;10406551;28;20061;-60
2022/11/28 08:47:44;;;;;;;21.83;11.90;;;;;;;8.59;65.22;100069.97;10400848;28;20081;-60
2022/11/28 08:52:46;;;;;;;18.10;10.27;;;;;;;8.62;65.85;100068.78;10390803;28;20705;-60
2022/11/28 08:57:47;;;;;;;18.88;10.88;;;;;;;8.72;65.47;100061.38;10404190;28;20108;-61
2022/11/28 09:02:49;;;;;;;21.38;12.45;;;;;;;8.76;65.41;100072.59;10377416;28;20057;-64
2022/11/28 09:07:53;;;;;;;20.33;10.98;;;;;;;8.83;64.94;100058.34;10391264;28;20052;-64
2022/11/28 09:12:55;;;;;;;19.88;10.32;;;;;;;8.90;65.19;100059.31;10391231;28;20052;-64
2022/11/28 09:17:56;;;;;;;21.48;11.10;;;;;;;8.93;65.02;100067.00;10385396;28;20679;-65
2022/11/28 09:22:58;;;;;;;18.90;10.77;;;;;;;8.92;64.65;100076.06;10391185;28;20726;-65
2022/11/28 09:28:00;;;;;;;20.20;11.75;;;;;;;8.95;64.75;100080.25;10391727;28;20137;-65
2022/11/28 09:33:01;;;;;;;19.08;10.40;;;;;;;8.99;64.88;100070.84;10389630;28;20085;-64
2022/11/28 09:38:03;;;;;;;20.42;11.45;;;;;;;9.05;64.67;100080.06;10390279;28;20107;-64
2022/11/28 09:43:35;;;;;;;18.98;11.13;;;;;;;9.12;64.66;100073.84;10395889;28;20076;-64
2022/11/28 09:48:45;;;;;;;18.50;10.68;;;;;;;9.22;64.48;100068.25;10369263;28;20140;-64
2022/11/28 09:54:15;;;;;;;19.50;10.85;;;;;;;9.25;64.61;100057.16;10384239;28;20080;-64
2022/11/28 09:59:23;;;;;;;18.67;10.82;;;;;;;9.26;64.24;100048.13;10386437;28;20065;-65
2022/11/28 10:05:04;;;;;;;19.92;10.85;;;;;;;9.44;63.99;100055.91;10388065;28;20388;-66
2022/11/28 10:10:33;;;;;;;17.55;10.85;;;;;;;9.61;63.79;100048.59;10379827;28;20046;-67
2022/11/28 10:15:53;;;;;;;20.42;11.95;;;;;;;9.70;63.53;100052.06;10385561;28;20689;-65
2022/11/28 10:21:01;;;;;;;19.48;10.65;;;;;;;9.75;63.44;100047.00;10380194;28;20065;-65
2022/11/28 10:26:22;;;;;;;18.60;11.90;;;;;;;9.51;63.59;100040.75;10377986;28;20667;-66
2022/11/28 10:31:32;;;;;;;19.23;11.32;;;;;;;9.56;63.44;100037.56;10380181;28;20081;-66
2022/11/28 10:36:50;;;;;;;19.42;11.38;;;;;;;9.69;63.05;100035.13;10377566;28;20061;-66
2022/11/28 10:42:10;;;;;;;25.38;11.57;;;;;;;9.87;63.09;100020.56;10380477;28;20049;-66
2022/11/28 10:47:47;;;;;;;20.30;10.25;;;;;;;9.94;62.99;100026.91;10381841;28;20057;-65
2022/11/28 10:53:26;;;;;;;18.73;9.77;;;;;;;9.95;63.02;100027.72;10381059;28;20107;-64
2022/11/28 10:58:31;;;;;;;;;;;;;;;9.93;63.55;100031.44;10380865;28;20103;-65
2022/11/28 11:03:37;;;;;;;21.65;10.27;;;;;;;10.06;62.65;100019.25;10356615;28;20333;-64
2022/11/28 11:08:40;;;;;;;17.85;9.48;;;;;;;10.21;62.42;100014.75;10361157;28;20128;-65
2022/11/28 11:14:03;;;;;;;15.77;9.52;;;;;;;10.17;62.26;100004.53;10365164;28;20054;-66
2022/11/28 11:19:04;;;;;;;17.52;9.55;;;;;;;10.02;62.71;100009.91;10380561;28;20112;-65
2022/11/28 11:24:16;;;;;;;18.48;9.77;;;;;;;10.10;62.05;100005.28;10365089;28;20107;-67
2022/11/28 11:29:34;;;;;;;16.40;9.25;;;;;;;10.09;61.90;100005.44;10379959;28;20504;-66
2022/11/28 11:34:43;;;;;;;14.25;8.50;;;;;;;10.08;61.80;100004.63;10361747;28;20510;-66
2022/11/28 11:39:51;;;;;;;12.00;8.00;;;;;;;10.25;61.69;99994.56;10377378;28;20050;-66
2022/11/28 11:44:53;;;;;;;12.23;7.57;;;;;;;10.44;61.32;99990.53;10359749;28;20077;-66
2022/11/28 11:50:03;;;;;;;11.32;7.97;;;;;;;10.40;61.38;99991.09;10365607;28;20147;-66
2022/11/28 11:55:13;;;;;;;13.00;7.53;;;;;;;10.34;61.70;99986.47;10378321;28;20086;-65
2022/11/28 12:00:19;;;;;;;13.45;8.63;;;;;;;10.43;61.05;99999.63;10382639;28;20143;-64
2022/11/28 12:05:34;;;;;;;14.00;8.15;;;;;;;10.31;61.30;99998.41;12504964;22;20020;-63
2022/11/28 14:08:04;;;;;;;19.92;11.20;;;;;;;9.48;67.88;99975.91;12486357;23;20049;-61
2022/11/28 14:13:15;;;;;;;18.73;10.70;;;;;;;9.44;68.32;99966.53;10414381;28;20045;-62
2022/11/28 14:18:59;;;;;;;18.35;10.85;;;;;;;9.50;68.37;99969.34;10391910;28;20050;-62
2022/11/28 14:29:38;;;;;;;19.95;12.48;;;;;;;9.47;68.67;99969.69;10923273;23;20085;-61
2022/11/28 14:34:45;;;;;;;23.67;12.73;;;;;;;9.18;69.32;99978.41;10352165;28;20073;-63
2022/11/28 14:39:49;;;;;;;21.63;11.88;;;;;;;9.12;69.91;99984.47;10392884;28;20060;-62
2022/11/28 14:55:25;;;;;;;24.53;13.40;;;;;;;9.09;69.85;99990.22;10514521;23;20059;-61
2022/11/28 15:00:33;;;;;;;22.98;12.48;;;;;;;9.05;70.14;99995.09;10390196;28;20052;-61
2022/11/28 15:05:51;;;;;;;18.70;12.82;;;;;;;9.14;69.90;99990.50;10475949;23;20051;-90
2022/11/28 15:16:56;;;;;;;22.90;12.80;;;;;;;9.32;69.33;99998.28;10495281;23;20093;-89
2022/11/28 15:21:58;;;;;;;20.57;13.03;;;;;;;9.22;69.93;99989.63;10329659;28;20052;-88
2022/11/28 15:27:05;;;;;;;23.85;14.07;;;;;;;9.42;69.68;99987.34;10322025;28;20089;-88
2022/11/28 15:32:13;;;;;;;24.70;12.77;;;;;;;9.34;69.51;99988.25;10349699;28;20057;-88
2022/11/28 15:37:18;;;;;;;23.77;12.82;;;;;;;9.35;69.79;99989.91;10332163;28;20142;-89
2022/11/28 15:42:28;;;;;;;21.40;13.20;;;;;;;9.52;69.42;99987.97;10340659;28;20053;-89
2022/11/28 15:47:30;;;;;;;23.25;13.73;;;;;;;9.65;69.12;99993.53;10358483;28;20494;-90
2022/11/28 15:52:32;;;;;;;22.50;14.10;;;;;;;9.75;69.46;99992.47;10342443;28;20058;-89
2022/11/28 15:57:34;;;;;;;28.83;16.40;;;;;;;9.76;69.33;99995.00;10337918;28;20130;-90
2022/11/28 16:02:39;;;;;;;27.50;14.55;;;;;;;9.82;69.46;100004.19;10596954;23;20087;-63
2022/11/28 16:13:03;;;;;;;24.90;13.45;;;;;;;9.93;69.18;100004.59;10622530;22;20085;-63
2022/11/28 16:18:05;;;;;;;22.08;14.30;;;;;;;9.98;69.44;100004.03;10338435;28;20046;-61
2022/11/28 16:23:29;;;;;;;23.48;12.63;;;;;;;9.99;69.42;100005.72;10321730;28;20089;-61
2022/11/28 16:28:39;;;;;;;21.55;12.32;;;;;;;9.99;69.32;100002.19;10322308;28;20069;-62
2022/11/28 16:33:46;;;;;;;22.45;12.80;;;;;;;9.98;69.28;100006.72;10325575;28;20054;-63
2022/11/28 16:39:03;;;;;;;21.63;13.23;;;;;;;9.96;69.67;100013.31;10332060;28;20050;-63
2022/11/28 16:44:13;;;;;;;26.23;13.88;;;;;;;9.98;69.51;100011.28;10350616;28;20053;-60
2022/11/28 16:49:40;;;;;;;27.38;14.00;;;;;;;9.96;69.54;100014.13;10345281;28;20046;-61
2022/11/28 16:54:43;;;;;;;28.38;15.60;;;;;;;9.93;69.87;100014.47;10331811;28;20153;-60
2022/11/28 16:59:45;;;;;;;25.10;15.00;;;;;;;9.95;69.61;100017.81;10323973;28;20101;-60
2022/11/28 17:04:49;;;;;;;33.58;16.05;;;;;;;9.96;69.70;100013.31;10355116;28;20085;-63
2022/11/28 17:09:50;;;;;;;25.98;13.75;;;;;;;9.95;69.68;100017.81;10351384;28;20081;-60
2022/11/28 17:14:53;;;;;;;30.73;14.43;;;;;;;9.95;69.74;100015.13;10380728;28;20054;-63
2022/11/28 17:19:54;;;;;;;24.55;14.07;;;;;;;9.98;69.70;100011.28;10381725;28;20061;-65
2022/11/28 17:25:00;;;;;;;27.48;14.55;;;;;;;10.00;69.67;100019.97;10373808;28;20050;-65
2022/11/28 17:30:01;;;;;;;23.55;13.68;;;;;;;9.96;69.84;100019.50;10375800;28;20065;-63
2022/11/28 17:35:12;;;;;;;25.40;13.85;;;;;;;9.88;69.92;100025.75;10381329;28;20046;-66
2022/11/28 17:40:32;;;;;;;26.67;15.82;;;;;;;9.89;69.80;100035.50;10384916;28;20054;-65
2022/11/28 17:45:34;;;;;;;27.10;14.35;;;;;;;9.86;69.82;100029.66;10375328;28;20049;-64
2022/11/28 17:50:36;;;;;;;29.38;14.07;;;;;;;9.88;69.90;100027.63;10391250;28;20061;-66
2022/11/28 17:55:39;;;;;;;27.38;14.65;;;;;;;9.93;69.94;100031.44;10395715;28;20061;-61
2022/11/28 18:00:41;;;;;;;25.85;15.05;;;;;;;9.99;69.74;100023.66;10374620;28;20092;-65
2022/11/28 18:05:45;;;;;;;27.15;15.52;;;;;;;10.00;69.90;100022.66;10376633;28;20042;-67
2022/11/28 18:10:47;;;;;;;28.52;15.70;;;;;;;10.00;69.95;100020.81;10379890;28;20053;-65
2022/11/28 18:15:52;;;;;;;23.33;14.40;;;;;;;10.00;69.99;100023.50;10374516;28;20117;-64
2022/11/28 18:20:53;;;;;;;30.88;17.60;;;;;;;10.03;69.89;100030.34;10353996;28;21655;-63
2022/11/28 18:25:54;;;;;;;31.00;16.63;;;;;;;9.98;70.01;100030.91;10370881;28;20505;-62
2022/11/28 18:30:56;;;;;;;36.88;18.15;;;;;;;9.91;70.34;100028.09;10370789;28;20144;-65
2022/11/28 18:36:07;;;;;;;34.00;20.83;;;;;;;9.89;70.45;100034.66;10374062;28;20073;-64
2022/11/28 18:41:09;;;;;;;33.88;19.30;;;;;;;9.87;70.78;100039.34;10378126;28;20050;-64
2022/11/28 18:46:16;;;;;;;32.65;16.65;;;;;;;9.82;70.90;100031.03;10385362;28;20050;-64
2022/11/28 18:51:20;;;;;;;32.50;18.80;;;;;;;9.80;71.03;100038.44;10380857;28;20588;-62
2022/11/28 18:56:23;;;;;;;25.88;16.48;;;;;;;9.78;71.12;100043.13;10380913;28;20556;-63
2022/11/28 19:01:31;;;;;;;30.40;19.05;;;;;;;9.80;71.20;100046.47;10384253;28;20586;-61
2022/11/28 19:06:33;;;;;;;;;;;;;;;9.78;70.93;100037.78;10386541;28;20053;-67
2022/11/28 19:11:35;;;;;;;32.13;16.83;;;;;;;9.81;71.15;100042.75;10384366;28;19928;-61
2022/11/28 19:16:37;;;;;;;31.35;17.60;;;;;;;9.79;71.18;100048.31;10379718;28;20076;-62
2022/11/28 19:21:38;;;;;;;27.55;16.75;;;;;;;9.77;71.29;100047.66;10382194;28;20057;-61
2022/11/28 19:26:40;;;;;;;31.80;17.83;;;;;;;9.77;71.23;100049.50;10374235;28;20117;-60
2022/11/28 19:31:41;;;;;;;32.75;17.00;;;;;;;9.80;71.33;100047.31;10367300;28;20073;-62
2022/11/28 19:36:46;;;;;;;29.15;15.70;;;;;;;9.83;71.50;100046.09;10361382;28;20076;-63
2022/11/28 19:41:49;;;;;;;33.90;17.88;;;;;;;9.84;71.52;100042.41;10365372;28;20078;-63
2022/11/28 19:46:52;;;;;;;31.42;17.05;;;;;;;9.84;71.69;100051.31;10379067;28;20077;-61
2022/11/28 19:51:53;;;;;;;30.05;17.55;;;;;;;9.80;71.71;100054.53;10376768;28;20427;-61
2022/11/28 19:56:55;;;;;;;51.88;28.65;;;;;;;9.77;71.88;100055.69;10372118;28;20057;-61
2022/11/28 20:01:57;;;;;;;41.78;24.25;;;;;;;9.74;71.76;100050.72;10375994;28;20053;-63
2022/11/28 20:06:58;;;;;;;34.60;19.08;;;;;;;9.72;71.98;100055.41;10384151;28;20072;-65
2022/11/28 20:12:00;;;;;;;32.28;17.52;;;;;;;9.72;71.92;100056.25;10374998;28;20065;-61
2022/11/28 20:17:01;;;;;;;32.58;17.98;;;;;;;9.72;71.85;100064.28;10365423;28;20060;-61
2022/11/28 20:22:03;;;;;;;32.15;18.63;;;;;;;9.73;71.85;100065.13;10383919;28;20061;-61
2022/11/28 20:27:04;;;;;;;34.90;17.75;;;;;;;9.72;71.96;100072.34;10385567;28;20053;-66
2022/11/28 20:32:05;;;;;;;33.58;19.10;;;;;;;9.75;71.80;100073.84;10383841;28;20053;-63
2022/11/28 20:37:07;;;;;;;29.20;17.90;;;;;;;9.79;71.82;100087.75;10379754;28;20165;-64
2022/11/28 20:42:08;;;;;;;33.78;18.08;;;;;;;9.81;71.98;100083.03;10377509;28;20057;-64
2022/11/28 20:47:10;;;;;;;37.17;20.30;;;;;;;9.81;71.81;100080.34;10377597;28;20061;-61
2022/11/28 20:52:11;;;;;;;37.83;20.35;;;;;;;9.79;71.93;100087.75;10391803;28;20050;-61
2022/11/28 20:57:13;;;;;;;32.03;18.75;;;;;;;9.76;71.99;100082.75;10396123;28;20069;-63
2022/11/28 21:02:22;;;;;;;31.98;17.83;;;;;;;9.71;72.39;100078.72;10376403;28;20046;-62
2022/11/28 21:07:25;;;;;;;37.88;19.17;;;;;;;9.65;72.44;100084.78;10394630;28;20065;-63
2022/11/28 21:12:27;;;;;;;33.08;18.55;;;;;;;9.64;72.44;100091.19;10391455;28;20096;-63
2022/11/28 21:17:28;;;;;;;31.95;15.80;;;;;;;9.62;72.65;100087.84;10395401;28;20497;-63
2022/11/28 21:22:30;;;;;;;37.70;18.80;;;;;;;9.62;72.78;100089.69;10398540;28;20053;-62
2022/11/28 21:27:34;;;;;;;32.17;16.23;;;;;;;9.60;72.57;100089.88;10394534;28;20060;-65
2022/11/28 21:32:35;;;;;;;30.45;16.85;;;;;;;9.53;73.03;100095.09;10392024;28;20038;-61
2022/11/28 21:37:36;;;;;;;33.63;18.38;;;;;;;9.57;73.01;100095.56;10378751;28;20069;-62
2022/11/28 21:42:38;;;;;;;27.88;15.48;;;;;;;9.53;73.15;100094.25;10390704;28;20050;-61
2022/11/28 21:47:39;;;;;;;31.33;15.32;;;;;;;9.50;73.95;100097.31;10386138;28;20046;-59
2022/11/28 21:52:40;;;;;;;32.63;17.58;;;;;;;9.46;73.65;100088.78;10388355;28;20052;-60
2022/11/28 21:57:43;;;;;;;32.28;17.30;;;;;;;9.41;74.05;100096.50;10389378;28;20072;-59
2022/11/28 22:02:46;;;;;;;31.95;17.63;;;;;;;9.39;74.46;100090.47;10383203;28;20072;-58
2022/11/28 22:07:47;;;;;;;43.45;20.40;;;;;;;9.28;74.57;100089.03;10386703;28;20104;-57
2022/11/28 22:12:48;;;;;;;38.25;18.70;;;;;;;9.34;74.61;100095.53;10390432;28;20390;-60
2022/11/28 22:17:50;;;;;;;33.85;18.58;;;;;;;9.38;74.71;100096.88;10395386;28;20046;-59
2022/11/28 22:22:51;;;;;;;37.00;20.35;;;;;;;9.36;74.78;100098.03;10381857;28;20069;-62
2022/11/28 22:27:53;;;;;;;34.85;17.38;;;;;;;9.35;75.00;100102.56;10378157;28;20080;-58
2022/11/28 22:32:54;;;;;;;36.50;17.85;;;;;;;9.35;75.34;100097.19;10377969;28;20049;-57
2022/11/28 22:37:56;;;;;;;34.92;17.88;;;;;;;9.38;75.55;100101.38;10380246;28;20057;-56
2022/11/28 22:42:57;;;;;;;32.85;18.08;;;;;;;9.36;75.85;100098.03;10400743;28;20053;-58
2022/11/28 22:47:58;;;;;;;30.70;16.95;;;;;;;9.39;75.64;100103.06;10407734;28;20061;-57
2022/11/28 22:53:00;;;;;;;35.72;18.02;;;;;;;9.32;75.83;100102.91;10400147;28;20049;-59
2022/11/28 22:58:01;;;;;;;34.67;17.75;;;;;;;9.32;75.98;100108.25;10385599;28;20065;-59
2022/11/28 23:03:03;;;;;;;37.38;17.25;;;;;;;9.28;76.08;100107.78;10383513;28;20077;-59
2022/11/28 23:08:04;;;;;;;32.85;16.23;;;;;;;9.26;76.24;100107.13;10381276;28;20060;-59
2022/11/28 23:13:06;;;;;;;33.13;17.08;;;;;;;9.17;76.66;100110.84;10383227;28;20046;-58
2022/11/28 23:18:07;;;;;;;30.63;15.70;;;;;;;9.10;76.46;100115.22;10388245;28;20049;-59
2022/11/28 23:23:08;;;;;;;35.75;16.25;;;;;;;9.13;76.53;100113.03;10384136;28;20050;-59
2022/11/28 23:28:10;;;;;;;36.90;16.42;;;;;;;9.13;76.67;100114.88;10382356;28;20061;-59
2022/11/28 23:33:11;;;;;;;32.25;16.90;;;;;;;9.15;76.42;100117.41;10381032;28;20054;-57
2022/11/28 23:38:14;;;;;;;37.30;17.08;;;;;;;9.15;76.91;100114.72;10374771;28;20104;-60
2022/11/28 23:43:15;;;;;;;36.88;16.98;;;;;;;9.15;76.80;100123.59;10379507;28;20058;-56
2022/11/28 23:48:17;;;;;;;30.13;15.70;;;;;;;9.13;76.40;100109.53;10373157;28;20810;-57
2022/11/28 23:53:18;;;;;;;32.58;16.20;;;;;;;9.10;77.02;100118.75;10377182;28;21011;-57
2022/11/28 23:58:20;;;;;;;31.98;15.90;;;;;;;9.12;76.56;100108.69;10376093;28;20092;-59
